createdAt,value
2016-03-24T00:00:46.078Z,0
2016-03-24T00:01:46.128Z,0
2016-03-24T00:02:46.193Z,0
2016-03-24T00:03:46.258Z,0
2016-03-24T00:04:46.277Z,0
2016-03-24T00:05:46.358Z,0
2016-03-24T00:06:46.422Z,0
2016-03-24T00:07:46.441Z,0
2016-03-24T00:08:46.490Z,0
2016-03-24T00:09:46.588Z,0
2016-03-24T00:10:46.605Z,0
2016-03-24T00:11:46.640Z,0
2016-03-24T00:12:46.735Z,0
2016-03-24T00:13:46.754Z,0
2016-03-24T00:14:46.819Z,0
2016-03-24T00:15:46.869Z,0
2016-03-24T00:16:46.903Z,0
2016-03-24T00:17:46.968Z,0
2016-03-24T00:18:47.034Z,0
2016-03-24T00:19:47.051Z,0
2016-03-24T00:20:47.132Z,0
2016-03-24T00:21:47.212Z,0
2016-03-24T00:22:47.201Z,0
2016-03-24T00:23:47.281Z,0
2016-03-24T00:24:47.331Z,0
2016-03-24T00:25:47.348Z,0
2016-03-24T00:26:47.430Z,0
2016-03-24T00:27:47.448Z,0
2016-03-24T00:28:47.545Z,0
2016-03-24T00:29:47.578Z,0
2016-03-24T00:30:47.597Z,0
2016-03-24T00:31:47.678Z,0
2016-03-24T00:32:47.743Z,0
2016-03-24T00:33:47.761Z,0
2016-03-24T00:34:47.841Z,0
2016-03-24T00:35:47.922Z,0
2016-03-24T00:36:47.925Z,0
2016-03-24T00:37:47.975Z,0
2016-03-24T00:38:48.040Z,0
2016-03-24T00:39:48.058Z,0
2016-03-24T00:40:48.154Z,0
2016-03-24T00:41:48.174Z,0
2016-03-24T00:42:48.223Z,0
2016-03-24T00:43:48.288Z,0
2016-03-24T00:44:48.321Z,0
2016-03-24T00:45:48.372Z,0
2016-03-24T00:46:48.468Z,0
2016-03-24T00:47:48.502Z,0
2016-03-24T00:48:48.504Z,0
2016-03-24T00:49:48.617Z,0
2016-03-24T00:50:48.651Z,0
2016-03-24T00:51:48.700Z,0
2016-03-24T00:52:48.781Z,0
2016-03-24T00:53:48.798Z,0
2016-03-24T00:54:48.880Z,0
2016-03-24T00:55:48.914Z,0
2016-03-24T00:56:48.932Z,0
2016-03-24T00:57:49.013Z,0
2016-03-24T00:58:49.062Z,0
2016-03-24T00:59:49.081Z,0
2016-03-24T01:00:49.177Z,0
2016-03-24T01:01:49.211Z,0
2016-03-24T01:02:49.229Z,0
2016-03-24T01:03:49.295Z,0
2016-03-24T01:04:49.360Z,0
2016-03-24T01:05:49.410Z,0
2016-03-24T01:06:49.443Z,0
2016-03-24T01:07:49.493Z,0
2016-03-24T01:08:49.573Z,0
2016-03-24T01:09:49.608Z,0
2016-03-24T01:10:49.641Z,0
2016-03-24T01:11:49.738Z,0
2016-03-24T01:12:49.772Z,0
2016-03-24T01:13:49.791Z,0
2016-03-24T01:14:49.855Z,0
2016-03-24T01:15:49.937Z,0
2016-03-24T01:16:49.954Z,0
2016-03-24T01:17:49.988Z,0
2016-03-24T01:18:50.053Z,0
2016-03-24T01:19:50.118Z,0
2016-03-24T01:20:50.153Z,0
2016-03-24T01:21:50.233Z,0
2016-03-24T01:22:50.267Z,0
2016-03-24T01:23:50.317Z,0
2016-03-24T01:24:50.398Z,0
2016-03-24T01:25:50.447Z,0
2016-03-24T01:26:50.467Z,0
2016-03-24T01:27:50.515Z,0
2016-03-24T01:28:50.597Z,0
2016-03-24T01:29:50.599Z,0
2016-03-24T01:30:50.664Z,0
2016-03-24T01:31:50.729Z,0
2016-03-24T01:32:50.029Z,0
2016-03-24T01:33:50.828Z,0
2016-03-24T01:34:50.097Z,0
2016-03-24T01:35:50.927Z,0
2016-03-24T01:36:51.008Z,0
2016-03-24T01:37:51.027Z,0
2016-03-24T01:38:51.092Z,0
2016-03-24T01:39:51.157Z,0
2016-03-24T01:40:51.175Z,0
2016-03-24T01:41:51.241Z,0
2016-03-24T01:42:51.321Z,0
2016-03-24T01:43:51.340Z,0
2016-03-24T01:44:51.248Z,0
2016-03-24T01:45:51.407Z,0
2016-03-24T01:46:51.504Z,0
2016-03-24T01:47:51.569Z,0
2016-03-24T01:48:51.571Z,0
2016-03-24T01:49:51.621Z,0
2016-03-24T01:50:51.545Z,0
2016-03-24T01:51:51.737Z,0
2016-03-24T01:52:51.770Z,0
2016-03-24T01:53:51.867Z,0
2016-03-24T01:54:51.885Z,0
2016-03-24T01:55:51.935Z,0
2016-03-24T01:56:52.015Z,0
2016-03-24T01:57:52.034Z,0
2016-03-24T01:58:52.130Z,0
2016-03-24T01:59:52.164Z,0
2016-03-24T02:00:52.183Z,0
2016-03-24T02:01:52.278Z,0
2016-03-24T02:02:52.328Z,0
2016-03-24T02:03:52.330Z,0
2016-03-24T02:04:52.427Z,0
2016-03-24T02:05:52.477Z,0
2016-03-24T02:06:52.480Z,0
2016-03-24T02:07:52.560Z,0
2016-03-24T02:08:52.625Z,0
2016-03-24T02:09:52.660Z,0
2016-03-24T02:10:52.725Z,0
2016-03-24T02:11:52.743Z,0
2016-03-24T02:12:52.824Z,0
2016-03-24T02:13:52.873Z,0
2016-03-24T02:14:52.877Z,0
2016-03-24T02:15:52.957Z,0
2016-03-24T02:16:53.053Z,0
2016-03-24T02:17:53.040Z,0
2016-03-24T02:18:53.121Z,0
2016-03-24T02:19:53.187Z,0
2016-03-24T02:20:53.205Z,0
2016-03-24T02:21:53.270Z,0
2016-03-24T02:22:53.304Z,0
2016-03-24T02:23:53.385Z,0
2016-03-24T02:24:53.435Z,0
2016-03-24T02:25:53.437Z,0
2016-03-24T02:26:53.518Z,0
2016-03-24T02:27:53.583Z,0
2016-03-24T02:28:53.601Z,0
2016-03-24T02:29:53.682Z,0
2016-03-24T02:30:53.731Z,0
2016-03-24T02:31:53.750Z,0
2016-03-24T02:32:53.799Z,0
2016-03-24T02:33:53.146Z,0
2016-03-24T02:34:53.945Z,0
2016-03-24T02:35:53.980Z,0
2016-03-24T02:36:53.997Z,0
2016-03-24T02:37:54.063Z,0
2016-03-24T02:38:54.144Z,0
2016-03-24T02:39:54.178Z,0
2016-03-24T02:40:54.212Z,0
2016-03-24T02:41:54.293Z,0
2016-03-24T02:42:54.374Z,0
2016-03-24T02:43:54.361Z,0
2016-03-24T02:44:54.472Z,0
2016-03-24T02:45:54.491Z,0
2016-03-24T02:46:54.509Z,0
2016-03-24T02:47:54.574Z,0
2016-03-24T02:48:54.608Z,0
2016-03-24T02:49:54.721Z,0
2016-03-24T02:50:54.785Z,0
2016-03-24T02:51:54.788Z,0
2016-03-24T02:52:54.885Z,0
2016-03-24T02:53:54.888Z,0
2016-03-24T02:54:54.921Z,0
2016-03-24T02:55:55.002Z,0
2016-03-24T02:56:55.067Z,0
2016-03-24T02:57:55.070Z,0
2016-03-24T02:58:55.151Z,0
2016-03-24T02:59:55.200Z,0
2016-03-24T03:00:55.219Z,0
2016-03-24T03:01:55.267Z,0
2016-03-24T03:02:55.349Z,0
2016-03-24T03:03:55.398Z,0
2016-03-24T03:04:55.433Z,0
2016-03-24T03:05:55.528Z,0
2016-03-24T03:06:55.579Z,0
2016-03-24T03:07:55.581Z,0
2016-03-24T03:08:55.694Z,0
2016-03-24T03:09:55.711Z,0
2016-03-24T03:10:55.730Z,0
2016-03-24T03:11:55.794Z,0
2016-03-24T03:12:55.861Z,0
2016-03-24T03:13:55.879Z,0
2016-03-24T03:14:55.944Z,0
2016-03-24T03:15:55.962Z,0
2016-03-24T03:16:56.058Z,0
2016-03-24T03:17:56.123Z,0
2016-03-24T03:18:56.143Z,0
2016-03-24T03:19:56.238Z,0
2016-03-24T03:20:56.304Z,0
2016-03-24T03:21:56.307Z,0
2016-03-24T03:22:56.372Z,0
2016-03-24T03:23:56.437Z,0
2016-03-24T03:24:56.455Z,0
2016-03-24T03:25:56.504Z,0
2016-03-24T03:26:56.585Z,0
2016-03-24T03:27:56.635Z,0
2016-03-24T03:28:56.685Z,0
2016-03-24T03:29:56.687Z,0
2016-03-24T03:30:56.768Z,0
2016-03-24T03:31:56.817Z,0
2016-03-24T03:32:56.851Z,0
2016-03-24T03:33:56.917Z,0
2016-03-24T03:34:56.998Z,0
2016-03-24T03:35:57.017Z,0
2016-03-24T03:36:57.066Z,0
2016-03-24T03:37:57.147Z,0
2016-03-24T03:38:57.164Z,0
2016-03-24T03:39:57.230Z,0
2016-03-24T03:40:57.263Z,0
2016-03-24T03:41:57.298Z,0
2016-03-24T03:42:57.410Z,0
2016-03-24T03:43:57.428Z,0
2016-03-24T03:44:57.462Z,0
2016-03-24T03:45:57.527Z,0
2016-03-24T03:46:57.576Z,0
2016-03-24T03:47:57.610Z,0
2016-03-24T03:48:57.754Z,0
2016-03-24T03:49:57.741Z,0
2016-03-24T03:50:57.743Z,0
2016-03-24T03:51:57.841Z,0
2016-03-24T03:52:57.859Z,0
2016-03-24T03:53:57.940Z,0
2016-03-24T03:54:57.989Z,0
2016-03-24T03:55:58.038Z,0
2016-03-24T03:56:58.103Z,0
2016-03-24T03:57:58.138Z,0
2016-03-24T03:58:58.171Z,0
2016-03-24T03:59:58.253Z,0
2016-03-24T04:00:58.301Z,0
2016-03-24T04:01:58.320Z,0
2016-03-24T04:02:58.401Z,0
2016-03-24T04:03:58.701Z,0
2016-03-24T04:04:58.469Z,0
2016-03-24T04:05:58.565Z,0
2016-03-24T04:06:58.589Z,0
2016-03-24T04:07:58.653Z,0
2016-03-24T04:08:58.703Z,0
2016-03-24T04:09:58.721Z,0
2016-03-24T04:10:58.786Z,0
2016-03-24T04:11:58.851Z,0
2016-03-24T04:12:58.871Z,0
2016-03-24T04:13:58.935Z,0
2016-03-24T04:14:59.001Z,0
2016-03-24T04:15:59.034Z,0
2016-03-24T04:16:59.069Z,0
2016-03-24T04:17:59.149Z,0
2016-03-24T04:18:59.246Z,0
2016-03-24T04:19:59.279Z,0
2016-03-24T04:20:59.282Z,0
2016-03-24T04:21:59.332Z,0
2016-03-24T04:22:59.413Z,0
2016-03-24T04:23:59.446Z,0
2016-03-24T04:24:59.481Z,0
2016-03-24T04:25:59.562Z,0
2016-03-24T04:26:59.611Z,0
2016-03-24T04:27:59.629Z,0
2016-03-24T04:28:59.710Z,0
2016-03-24T04:29:59.759Z,0
2016-03-24T04:30:59.794Z,0
2016-03-24T04:31:59.828Z,0
2016-03-24T04:32:59.877Z,0
2016-03-24T04:33:59.864Z,0
2016-03-24T04:34:59.991Z,0
2016-03-24T04:36:00.041Z,0
2016-03-24T04:37:00.122Z,0
2016-03-24T04:38:00.156Z,0
2016-03-24T04:39:00.190Z,0
2016-03-24T04:40:00.271Z,0
2016-03-24T04:41:00.320Z,0
2016-03-24T04:42:00.338Z,0
2016-03-24T04:43:00.419Z,0
2016-03-24T04:44:00.469Z,0
2016-03-24T04:45:00.346Z,0
2016-03-24T04:46:00.615Z,0
2016-03-24T04:47:00.649Z,0
2016-03-24T04:48:00.668Z,0
2016-03-24T04:49:00.576Z,0
2016-03-24T04:50:00.782Z,0
2016-03-24T04:51:00.831Z,0
2016-03-24T04:52:00.851Z,0
2016-03-24T04:53:00.931Z,0
2016-03-24T04:54:00.996Z,0
2016-03-24T04:55:00.998Z,0
2016-03-24T04:56:01.064Z,0
2016-03-24T04:57:01.097Z,0
2016-03-24T04:58:01.195Z,0
2016-03-24T04:59:01.212Z,0
2016-03-24T05:00:01.262Z,0
2016-03-24T05:01:01.358Z,0
2016-03-24T05:02:01.393Z,0
2016-03-24T05:03:01.411Z,0
2016-03-24T05:04:01.554Z,0
2016-03-24T05:05:01.541Z,0
2016-03-24T05:06:01.559Z,0
2016-03-24T05:07:01.624Z,0
2016-03-24T05:08:01.706Z,4
2016-03-24T05:09:01.708Z,4
2016-03-24T05:10:01.789Z,0
2016-03-24T05:11:01.807Z,4
2016-03-24T05:12:01.888Z,4
2016-03-24T05:13:02.094Z,0
2016-03-24T05:14:01.940Z,4
2016-03-24T05:15:02.005Z,4
2016-03-24T05:16:02.086Z,4
2016-03-24T05:17:02.105Z,4
2016-03-24T05:18:02.154Z,4
2016-03-24T05:19:02.251Z,4
2016-03-24T05:20:02.097Z,4
2016-03-24T05:21:02.303Z,8
2016-03-24T05:22:02.399Z,8
2016-03-24T05:23:02.418Z,8
2016-03-24T05:24:02.498Z,8
2016-03-24T05:25:02.501Z,8
2016-03-24T05:26:02.566Z,8
2016-03-24T05:27:02.647Z,12
2016-03-24T05:28:02.665Z,8
2016-03-24T05:29:02.731Z,12
2016-03-24T05:30:02.811Z,12
2016-03-24T05:31:02.845Z,12
2016-03-24T05:32:02.864Z,16
2016-03-24T05:33:02.961Z,12
2016-03-24T05:34:03.041Z,16
2016-03-24T05:35:03.044Z,16
2016-03-24T05:36:03.077Z,20
2016-03-24T05:37:03.112Z,20
2016-03-24T05:38:03.208Z,16
2016-03-24T05:39:03.227Z,12
2016-03-24T05:40:03.260Z,12
2016-03-24T05:41:03.357Z,12
2016-03-24T05:42:03.405Z,8
2016-03-24T05:43:03.425Z,12
2016-03-24T05:44:03.505Z,12
2016-03-24T05:45:03.571Z,16
2016-03-24T05:46:03.589Z,16
2016-03-24T05:47:03.655Z,16
2016-03-24T05:48:03.704Z,20
2016-03-24T05:49:03.816Z,28
2016-03-24T05:50:03.787Z,28
2016-03-24T05:51:03.821Z,32
2016-03-24T05:52:03.902Z,36
2016-03-24T05:53:03.968Z,28
2016-03-24T05:54:03.970Z,32
2016-03-24T05:55:04.051Z,36
2016-03-24T05:56:04.131Z,40
2016-03-24T05:57:04.118Z,52
2016-03-24T05:58:04.184Z,48
2016-03-24T05:59:04.281Z,64
2016-03-24T06:00:04.283Z,72
2016-03-24T06:01:04.379Z,80
2016-03-24T06:02:04.414Z,92
2016-03-24T06:03:04.462Z,96
2016-03-24T06:04:04.559Z,100
2016-03-24T06:05:04.530Z,96
2016-03-24T06:06:04.580Z,100
2016-03-24T06:07:04.677Z,100
2016-03-24T06:08:04.695Z,96
2016-03-24T06:09:04.745Z,92
2016-03-24T06:10:04.825Z,84
2016-03-24T06:11:04.858Z,76
2016-03-24T06:12:04.893Z,84
2016-03-24T06:13:04.974Z,72
2016-03-24T06:14:05.008Z,68
2016-03-24T06:15:05.073Z,64
2016-03-24T06:16:05.107Z,56
2016-03-24T06:17:05.157Z,52
2016-03-24T06:18:05.238Z,48
2016-03-24T06:19:05.271Z,44
2016-03-24T06:20:05.290Z,44
2016-03-24T06:21:05.401Z,40
2016-03-24T06:22:05.435Z,40
2016-03-24T06:23:05.470Z,36
2016-03-24T06:24:05.535Z,32
2016-03-24T06:25:05.584Z,32
2016-03-24T06:26:05.603Z,32
2016-03-24T06:27:05.667Z,28
2016-03-24T06:28:05.734Z,32
2016-03-24T06:29:05.767Z,32
2016-03-24T06:30:05.832Z,36
2016-03-24T06:31:05.912Z,32
2016-03-24T06:32:05.916Z,32
2016-03-24T06:33:05.965Z,28
2016-03-24T06:34:06.125Z,24
2016-03-24T06:35:06.080Z,28
2016-03-24T06:36:06.130Z,28
2016-03-24T06:37:06.226Z,28
2016-03-24T06:38:06.245Z,28
2016-03-24T06:39:06.278Z,28
2016-03-24T06:40:06.328Z,28
2016-03-24T06:41:06.361Z,28
2016-03-24T06:42:06.458Z,24
2016-03-24T06:43:06.492Z,24
2016-03-24T06:44:06.527Z,24
2016-03-24T06:45:06.607Z,24
2016-03-24T06:46:06.657Z,20
2016-03-24T06:47:06.691Z,20
2016-03-24T06:48:06.756Z,24
2016-03-24T06:49:06.836Z,24
2016-03-24T06:50:06.823Z,24
2016-03-24T06:51:06.888Z,24
2016-03-24T06:52:06.923Z,24
2016-03-24T06:53:07.004Z,28
2016-03-24T06:54:07.037Z,24
2016-03-24T06:55:07.056Z,24
2016-03-24T06:56:07.151Z,24
2016-03-24T06:57:07.218Z,28
2016-03-24T06:58:07.220Z,24
2016-03-24T06:59:07.285Z,28
2016-03-24T07:00:07.350Z,28
2016-03-24T07:01:07.385Z,28
2016-03-24T07:02:07.434Z,24
2016-03-24T07:03:07.531Z,28
2016-03-24T07:04:07.580Z,28
2016-03-24T07:05:07.598Z,28
2016-03-24T07:06:07.617Z,24
2016-03-24T07:07:07.698Z,24
2016-03-24T07:08:07.028Z,28
2016-03-24T07:09:07.781Z,24
2016-03-24T07:10:07.831Z,24
2016-03-24T07:11:07.912Z,20
2016-03-24T07:12:07.945Z,16
2016-03-24T07:13:07.979Z,16
2016-03-24T07:14:08.060Z,16
2016-03-24T07:15:08.110Z,16
2016-03-24T07:16:08.128Z,16
2016-03-24T07:17:08.208Z,16
2016-03-24T07:18:08.258Z,16
2016-03-24T07:19:08.323Z,20
2016-03-24T07:20:08.342Z,20
2016-03-24T07:21:08.391Z,20
2016-03-24T07:22:08.487Z,28
2016-03-24T07:23:08.522Z,28
2016-03-24T07:24:08.540Z,32
2016-03-24T07:25:08.621Z,32
2016-03-24T07:26:08.671Z,36
2016-03-24T07:27:08.688Z,32
2016-03-24T07:28:08.770Z,36
2016-03-24T07:29:08.819Z,32
2016-03-24T07:30:08.854Z,36
2016-03-24T07:31:08.965Z,36
2016-03-24T07:32:08.951Z,36
2016-03-24T07:33:09.049Z,36
2016-03-24T07:34:09.082Z,36
2016-03-24T07:35:09.117Z,36
2016-03-24T07:36:09.182Z,36
2016-03-24T07:37:09.247Z,32
2016-03-24T07:38:09.250Z,36
2016-03-24T07:39:09.345Z,36
2016-03-24T07:40:09.395Z,36
2016-03-24T07:41:09.414Z,40
2016-03-24T07:42:09.478Z,40
2016-03-24T07:43:09.544Z,44
2016-03-24T07:44:09.594Z,52
2016-03-24T07:45:09.659Z,52
2016-03-24T07:46:09.661Z,48
2016-03-24T07:47:09.727Z,44
2016-03-24T07:48:09.807Z,40
2016-03-24T07:49:09.811Z,36
2016-03-24T07:50:09.860Z,32
2016-03-24T07:51:09.940Z,32
2016-03-24T07:52:09.991Z,32
2016-03-24T07:53:10.055Z,32
2016-03-24T07:54:10.090Z,32
2016-03-24T07:55:10.155Z,28
2016-03-24T07:56:10.204Z,24
2016-03-24T07:57:10.223Z,24
2016-03-24T07:58:10.288Z,24
2016-03-24T07:59:10.385Z,20
2016-03-24T08:00:10.371Z,24
2016-03-24T08:01:10.420Z,20
2016-03-24T08:02:10.533Z,20
2016-03-24T08:03:10.567Z,20
2016-03-24T08:04:10.601Z,24
2016-03-24T08:05:10.682Z,24
2016-03-24T08:06:10.700Z,28
2016-03-24T08:07:10.581Z,24
2016-03-24T08:08:11.340Z,32
2016-03-24T08:09:10.858Z,32
2016-03-24T08:10:10.892Z,36
2016-03-24T08:11:10.958Z,36
2016-03-24T08:12:11.022Z,36
2016-03-24T08:13:11.025Z,32
2016-03-24T08:14:11.105Z,32
2016-03-24T08:15:11.171Z,32
2016-03-24T08:16:11.190Z,32
2016-03-24T08:17:11.239Z,28
2016-03-24T08:18:11.320Z,32
2016-03-24T08:19:11.354Z,32
2016-03-24T08:20:11.388Z,32
2016-03-24T08:21:11.469Z,28
2016-03-24T08:22:11.502Z,32
2016-03-24T08:23:11.567Z,28
2016-03-24T08:24:11.602Z,28
2016-03-24T08:25:11.635Z,28
2016-03-24T08:26:11.717Z,28
2016-03-24T08:27:11.766Z,32
2016-03-24T08:28:11.800Z,32
2016-03-24T08:29:11.881Z,32
2016-03-24T08:30:11.915Z,32
2016-03-24T08:31:11.948Z,32
2016-03-24T08:32:12.029Z,28
2016-03-24T08:33:12.079Z,32
2016-03-24T08:34:12.097Z,28
2016-03-24T08:35:12.151Z,28
2016-03-24T08:36:12.154Z,28
2016-03-24T08:37:12.234Z,28
2016-03-24T08:38:12.269Z,28
2016-03-24T08:39:12.270Z,24
2016-03-24T08:40:12.342Z,24
2016-03-24T08:41:12.403Z,28
2016-03-24T08:42:12.399Z,28
2016-03-24T08:43:12.459Z,28
2016-03-24T08:44:12.534Z,28
2016-03-24T08:45:12.549Z,28
2016-03-24T08:46:12.627Z,28
2016-03-24T08:47:12.675Z,24
2016-03-24T08:48:12.724Z,24
2016-03-24T08:49:12.802Z,24
2016-03-24T08:50:12.773Z,24
2016-03-24T08:51:12.836Z,24
2016-03-24T08:52:12.933Z,24
2016-03-24T08:53:14.809Z,24
2016-03-24T08:54:13.000Z,24
2016-03-24T08:55:13.095Z,24
2016-03-24T08:56:13.113Z,24
2016-03-24T08:57:13.147Z,28
2016-03-24T08:58:13.226Z,36
2016-03-24T08:59:13.308Z,36
2016-03-24T09:00:13.294Z,36
2016-03-24T09:01:13.391Z,36
2016-03-24T09:02:13.425Z,40
2016-03-24T09:03:13.444Z,40
2016-03-24T09:04:13.524Z,36
2016-03-24T09:05:13.574Z,32
2016-03-24T09:06:13.608Z,36
2016-03-24T09:07:13.657Z,36
2016-03-24T09:08:13.738Z,32
2016-03-24T09:09:13.755Z,32
2016-03-24T09:10:13.805Z,36
2016-03-24T09:11:13.886Z,36
2016-03-24T09:12:14.546Z,36
2016-03-24T09:13:13.985Z,36
2016-03-24T09:14:14.004Z,40
2016-03-24T09:15:14.085Z,40
2016-03-24T09:16:14.134Z,44
2016-03-24T09:17:13.996Z,40
2016-03-24T09:18:14.218Z,44
2016-03-24T09:19:14.298Z,48
2016-03-24T09:20:14.317Z,48
2016-03-24T09:21:14.351Z,48
2016-03-24T09:22:14.432Z,52
2016-03-24T09:23:14.481Z,48
2016-03-24T09:24:14.515Z,48
2016-03-24T09:25:14.612Z,56
2016-03-24T09:26:14.630Z,56
2016-03-24T09:27:14.711Z,52
2016-03-24T09:28:14.745Z,52
2016-03-24T09:29:14.779Z,56
2016-03-24T09:30:14.859Z,56
2016-03-24T09:31:14.894Z,60
2016-03-24T09:32:14.927Z,56
2016-03-24T09:33:14.992Z,52
2016-03-24T09:34:15.042Z,52
2016-03-24T09:35:14.904Z,44
2016-03-24T09:36:14.985Z,44
2016-03-24T09:37:15.222Z,48
2016-03-24T09:38:15.209Z,52
2016-03-24T09:39:15.305Z,52
2016-03-24T09:40:15.355Z,52
2016-03-24T09:41:15.405Z,52
2016-03-24T09:42:15.438Z,52
2016-03-24T09:43:15.472Z,52
2016-03-24T09:44:15.538Z,44
2016-03-24T09:45:15.603Z,48
2016-03-24T09:46:15.621Z,48
2016-03-24T09:47:15.687Z,48
2016-03-24T09:48:15.752Z,44
2016-03-24T09:49:15.770Z,44
2016-03-24T09:50:15.835Z,48
2016-03-24T09:51:15.915Z,44
2016-03-24T09:52:15.934Z,44
2016-03-24T09:53:15.968Z,44
2016-03-24T09:54:16.064Z,48
2016-03-24T09:55:16.099Z,48
2016-03-24T09:56:16.117Z,48
2016-03-24T09:57:16.213Z,40
2016-03-24T09:58:16.263Z,40
2016-03-24T09:59:16.140Z,44
2016-03-24T10:00:16.361Z,48
2016-03-24T10:01:16.428Z,44
2016-03-24T10:02:16.430Z,44
2016-03-24T10:03:16.495Z,40
2016-03-24T10:04:16.545Z,44
2016-03-24T10:05:16.625Z,40
2016-03-24T10:06:16.659Z,48
2016-03-24T10:07:16.522Z,48
2016-03-24T10:08:16.758Z,56
2016-03-24T10:09:16.838Z,60
2016-03-24T10:10:16.842Z,60
2016-03-24T10:11:16.907Z,56
2016-03-24T10:12:16.988Z,56
2016-03-24T10:13:17.007Z,52
2016-03-24T10:14:17.056Z,48
2016-03-24T10:15:17.137Z,56
2016-03-24T10:16:17.171Z,56
2016-03-24T10:17:17.235Z,64
2016-03-24T10:18:17.270Z,64
2016-03-24T10:19:17.335Z,68
2016-03-24T10:20:17.401Z,68
2016-03-24T10:21:17.418Z,64
2016-03-24T10:22:17.484Z,60
2016-03-24T10:23:17.549Z,60
2016-03-24T10:24:17.568Z,60
2016-03-24T10:25:17.617Z,56
2016-03-24T10:26:17.697Z,56
2016-03-24T10:27:17.747Z,60
2016-03-24T10:28:17.765Z,60
2016-03-24T10:29:17.846Z,60
2016-03-24T10:30:17.880Z,48
2016-03-24T10:31:17.946Z,52
2016-03-24T10:32:17.995Z,56
2016-03-24T10:33:18.014Z,52
2016-03-24T10:34:18.109Z,52
2016-03-24T10:35:18.144Z,64
2016-03-24T10:36:18.178Z,48
2016-03-24T10:37:18.289Z,44
2016-03-24T10:38:18.307Z,52
2016-03-24T10:39:18.327Z,52
2016-03-24T10:40:18.407Z,52
2016-03-24T10:41:18.488Z,52
2016-03-24T10:42:18.490Z,56
2016-03-24T10:43:18.556Z,56
2016-03-24T10:44:18.590Z,60
2016-03-24T10:45:18.701Z,60
2016-03-24T10:46:18.720Z,52
2016-03-24T10:47:18.754Z,52
2016-03-24T10:48:18.818Z,48
2016-03-24T10:49:18.884Z,60
2016-03-24T10:50:18.871Z,60
2016-03-24T10:51:18.937Z,60
2016-03-24T10:52:19.017Z,60
2016-03-24T10:53:19.035Z,56
2016-03-24T10:54:19.085Z,48
2016-03-24T10:55:19.151Z,48
2016-03-24T10:56:19.200Z,44
2016-03-24T10:57:19.265Z,48
2016-03-24T10:58:19.284Z,48
2016-03-24T10:59:19.348Z,48
2016-03-24T11:00:19.414Z,48
2016-03-24T11:01:19.431Z,44
2016-03-24T11:02:19.482Z,40
2016-03-24T11:03:19.579Z,44
2016-03-24T11:04:19.597Z,44
2016-03-24T11:05:19.662Z,48
2016-03-24T11:06:19.711Z,48
2016-03-24T11:07:19.761Z,52
2016-03-24T11:08:19.811Z,52
2016-03-24T11:09:19.844Z,52
2016-03-24T11:10:19.909Z,48
2016-03-24T11:11:20.005Z,52
2016-03-24T11:12:20.008Z,56
2016-03-24T11:13:20.058Z,56
2016-03-24T11:14:20.139Z,56
2016-03-24T11:15:20.173Z,60
2016-03-24T11:16:20.207Z,60
2016-03-24T11:17:20.287Z,52
2016-03-24T11:18:20.338Z,56
2016-03-24T11:19:20.355Z,56
2016-03-24T11:20:20.483Z,52
2016-03-24T11:21:20.454Z,60
2016-03-24T11:22:20.535Z,60
2016-03-24T11:23:20.570Z,64
2016-03-24T11:24:20.634Z,56
2016-03-24T11:25:20.701Z,56
2016-03-24T11:26:20.749Z,52
2016-03-24T11:27:20.767Z,56
2016-03-24T11:28:20.849Z,48
2016-03-24T11:29:20.898Z,52
2016-03-24T11:30:20.931Z,56
2016-03-24T11:31:20.982Z,56
2016-03-24T11:32:21.047Z,56
2016-03-24T11:33:21.065Z,60
2016-03-24T11:34:21.131Z,60
2016-03-24T11:35:21.195Z,60
2016-03-24T11:36:21.230Z,60
2016-03-24T11:37:21.263Z,64
2016-03-24T11:38:21.360Z,60
2016-03-24T11:39:21.394Z,60
2016-03-24T11:40:21.412Z,60
2016-03-24T11:41:21.508Z,64
2016-03-24T11:42:21.558Z,60
2016-03-24T11:43:21.577Z,64
2016-03-24T11:44:21.657Z,60
2016-03-24T11:45:21.722Z,60
2016-03-24T11:46:21.741Z,56
2016-03-24T11:47:21.805Z,56
2016-03-24T11:48:21.825Z,60
2016-03-24T11:49:21.968Z,52
2016-03-24T11:50:22.048Z,48
2016-03-24T11:51:21.973Z,40
2016-03-24T11:52:22.053Z,40
2016-03-24T11:53:22.118Z,40
2016-03-24T11:54:22.121Z,44
2016-03-24T11:55:22.202Z,40
2016-03-24T11:56:22.284Z,44
2016-03-24T11:57:22.286Z,44
2016-03-24T11:58:22.351Z,44
2016-03-24T11:59:22.417Z,40
2016-03-24T12:00:22.465Z,40
2016-03-24T12:01:22.531Z,40
2016-03-24T12:02:22.550Z,40
2016-03-24T12:03:22.615Z,36
2016-03-24T12:04:22.680Z,40
2016-03-24T12:05:22.745Z,40
2016-03-24T12:06:22.747Z,40
2016-03-24T12:07:22.813Z,44
2016-03-24T12:08:22.847Z,48
2016-03-24T12:09:22.896Z,52
2016-03-24T12:10:23.072Z,52
2016-03-24T12:11:23.011Z,60
2016-03-24T12:12:23.076Z,60
2016-03-24T12:13:23.094Z,60
2016-03-24T12:14:23.160Z,60
2016-03-24T12:15:23.256Z,60
2016-03-24T12:16:23.258Z,64
2016-03-24T12:17:23.137Z,64
2016-03-24T12:18:23.389Z,64
2016-03-24T12:19:23.438Z,68
2016-03-24T12:20:23.473Z,68
2016-03-24T12:21:23.553Z,72
2016-03-24T12:22:23.571Z,68
2016-03-24T12:23:23.606Z,72
2016-03-24T12:24:23.686Z,72
2016-03-24T12:25:23.690Z,72
2016-03-24T12:26:23.801Z,76
2016-03-24T12:27:23.835Z,72
2016-03-24T12:28:23.853Z,76
2016-03-24T12:29:23.935Z,76
2016-03-24T12:30:24.000Z,76
2016-03-24T12:31:24.003Z,76
2016-03-24T12:32:24.083Z,80
2016-03-24T12:33:24.164Z,80
2016-03-24T12:34:24.151Z,80
2016-03-24T12:35:24.278Z,80
2016-03-24T12:36:24.297Z,76
2016-03-24T12:37:24.315Z,80
2016-03-24T12:38:24.397Z,80
2016-03-24T12:39:24.445Z,80
2016-03-24T12:40:24.495Z,76
2016-03-24T12:41:24.545Z,76
2016-03-24T12:42:24.563Z,80
2016-03-24T12:43:24.644Z,76
2016-03-24T12:44:24.708Z,76
2016-03-24T12:45:24.712Z,80
2016-03-24T12:46:24.761Z,76
2016-03-24T12:47:24.873Z,72
2016-03-24T12:48:24.876Z,64
2016-03-24T12:49:24.910Z,60
2016-03-24T12:50:25.272Z,56
2016-03-24T12:51:25.040Z,52
2016-03-24T12:52:25.105Z,52
2016-03-24T12:53:25.140Z,44
2016-03-24T12:54:25.190Z,40
2016-03-24T12:55:25.285Z,32
2016-03-24T12:56:25.288Z,32
2016-03-24T12:57:25.337Z,36
2016-03-24T12:58:25.419Z,28
2016-03-24T12:59:25.453Z,12
2016-03-24T13:00:25.486Z,24
2016-03-24T13:01:25.583Z,20
2016-03-24T13:02:25.617Z,20
2016-03-24T13:03:25.667Z,20
2016-03-24T13:04:25.700Z,24
2016-03-24T13:05:25.766Z,24
2016-03-24T13:06:25.831Z,20
2016-03-24T13:07:25.865Z,24
2016-03-24T13:08:25.898Z,24
2016-03-24T13:09:26.010Z,24
2016-03-24T13:10:26.029Z,32
2016-03-24T13:11:26.047Z,28
2016-03-24T13:12:26.128Z,32
2016-03-24T13:13:26.177Z,32
2016-03-24T13:14:26.212Z,36
2016-03-24T13:15:26.261Z,36
2016-03-24T13:16:26.327Z,36
2016-03-24T13:17:26.376Z,40
2016-03-24T13:18:26.411Z,40
2016-03-24T13:19:26.507Z,40
2016-03-24T13:20:26.524Z,40
2016-03-24T13:21:26.543Z,40
2016-03-24T13:22:26.670Z,36
2016-03-24T13:23:26.674Z,36
2016-03-24T13:24:26.707Z,36
2016-03-24T13:25:26.819Z,36
2016-03-24T13:26:26.838Z,32
2016-03-24T13:27:26.857Z,32
2016-03-24T13:28:27.156Z,32
2016-03-24T13:29:26.954Z,36
2016-03-24T13:30:27.052Z,36
2016-03-24T13:31:27.117Z,40
2016-03-24T13:32:27.120Z,40
2016-03-24T13:33:27.216Z,44
2016-03-24T13:34:27.265Z,44
2016-03-24T13:35:27.283Z,40
2016-03-24T13:36:27.348Z,44
2016-03-24T13:37:27.398Z,44
2016-03-24T13:38:27.417Z,40
2016-03-24T13:39:27.481Z,44
2016-03-24T13:40:27.564Z,40
2016-03-24T13:41:27.612Z,40
2016-03-24T13:42:27.646Z,44
2016-03-24T13:43:27.680Z,40
2016-03-24T13:44:27.761Z,44
2016-03-24T13:45:27.811Z,44
2016-03-24T13:46:27.829Z,44
2016-03-24T13:47:27.894Z,44
2016-03-24T13:48:27.975Z,48
2016-03-24T13:49:27.994Z,44
2016-03-24T13:50:28.043Z,40
2016-03-24T13:51:28.124Z,36
2016-03-24T13:52:28.141Z,36
2016-03-24T13:53:28.192Z,36
2016-03-24T13:54:28.257Z,32
2016-03-24T13:55:28.307Z,28
2016-03-24T13:56:28.371Z,28
2016-03-24T13:57:28.390Z,24
2016-03-24T13:58:28.440Z,24
2016-03-24T13:59:27.771Z,24
2016-03-24T14:00:28.570Z,24
2016-03-24T14:01:28.587Z,24
2016-03-24T14:02:28.529Z,24
2016-03-24T14:03:28.721Z,24
2016-03-24T14:04:28.755Z,24
2016-03-24T14:05:28.883Z,24
2016-03-24T14:06:28.885Z,20
2016-03-24T14:07:28.904Z,20
2016-03-24T14:08:28.969Z,24
2016-03-24T14:09:29.003Z,20
2016-03-24T14:10:29.099Z,20
2016-03-24T14:11:29.118Z,20
2016-03-24T14:12:29.152Z,20
2016-03-24T14:13:29.247Z,20
2016-03-24T14:14:29.282Z,24
2016-03-24T14:15:29.160Z,20
2016-03-24T14:16:29.380Z,20
2016-03-24T14:17:29.447Z,20
2016-03-24T14:18:29.464Z,20
2016-03-24T14:19:29.530Z,16
2016-03-24T14:20:29.641Z,20
2016-03-24T14:21:29.661Z,16
2016-03-24T14:22:29.694Z,16
2016-03-24T14:23:29.713Z,16
2016-03-24T14:24:29.777Z,16
2016-03-24T14:25:29.858Z,16
2016-03-24T14:26:29.860Z,16
2016-03-24T14:27:29.943Z,16
2016-03-24T14:28:30.007Z,16